createdAt,value
2019-02-17T00:00:37.022Z,24.03
2019-02-17T00:03:04.346Z,29.07
2019-02-17T00:05:31.634Z,27.83
2019-02-17T00:07:58.891Z,27.77
2019-02-17T00:10:26.171Z,37.53
2019-02-17T00:12:53.535Z,25.87
2019-02-17T00:15:20.825Z,28.93
2019-02-17T00:17:48.097Z,30.03
2019-02-17T00:20:15.355Z,28.97
2019-02-17T00:22:42.645Z,30.33
2019-02-17T00:25:09.899Z,25.67
2019-02-17T00:27:37.189Z,24.80
2019-02-17T00:30:07.071Z,28.67
2019-02-17T00:32:34.438Z,30.20
2019-02-17T00:35:01.725Z,26.07
2019-02-17T00:37:29.019Z,27.17
2019-02-17T00:39:56.274Z,26.27
2019-02-17T00:42:23.526Z,28.90
2019-02-17T00:44:50.794Z,27.13
2019-02-17T00:47:18.078Z,25.77
2019-02-17T00:49:45.442Z,28.17
2019-02-17T00:52:12.723Z,29.50
2019-02-17T00:54:39.975Z,28.53
2019-02-17T00:57:07.277Z,27.17
2019-02-17T00:59:34.569Z,25.50
2019-02-17T01:02:02.095Z,28.70
2019-02-17T01:04:29.626Z,27.60
2019-02-17T01:06:56.927Z,27.93
2019-02-17T01:09:24.190Z,26.43
2019-02-17T01:11:51.438Z,30.33
2019-02-17T01:14:18.738Z,31.07
2019-02-17T01:16:45.995Z,22.43
2019-02-17T01:19:13.246Z,31.47
2019-02-17T01:21:40.538Z,29.47
2019-02-17T01:24:07.798Z,29.93
2019-02-17T01:26:35.055Z,32.70
2019-02-17T01:29:02.336Z,28.47
2019-02-17T01:31:29.591Z,25.60
2019-02-17T01:33:56.875Z,33.03
2019-02-17T01:36:24.163Z,27.47
2019-02-17T01:38:51.451Z,26.60
2019-02-17T01:41:18.700Z,30.33
2019-02-17T01:43:45.981Z,29.80
2019-02-17T01:46:13.510Z,27.60
2019-02-17T01:48:41.063Z,26.93
2019-02-17T01:51:08.350Z,27.67
2019-02-17T01:53:35.885Z,35.13
2019-02-17T01:56:03.139Z,30.93
2019-02-17T01:58:30.512Z,26.00
2019-02-17T02:00:58.019Z,28.30
2019-02-17T02:03:25.265Z,26.60
2019-02-17T02:05:52.555Z,26.50
2019-02-17T02:08:20.074Z,31.37
2019-02-17T02:10:47.357Z,26.00
2019-02-17T02:13:14.643Z,25.43
2019-02-17T02:15:41.929Z,28.37
2019-02-17T02:18:09.185Z,26.23
2019-02-17T02:20:36.710Z,28.70
2019-02-17T02:23:03.994Z,26.60
2019-02-17T02:25:31.248Z,28.43
2019-02-17T02:27:58.541Z,28.53
2019-02-17T02:30:25.817Z,26.40
2019-02-17T02:32:53.078Z,25.77
2019-02-17T02:35:20.430Z,22.97
2019-02-17T02:37:47.682Z,23.60
2019-02-17T02:40:14.958Z,24.17
2019-02-17T02:42:42.234Z,24.10
2019-02-17T02:45:10.429Z,27.43
2019-02-17T02:47:37.705Z,21.50
2019-02-17T02:50:09.281Z,25.40
2019-02-17T02:52:36.572Z,21.70
2019-02-17T02:55:04.150Z,22.07
2019-02-17T02:57:31.431Z,22.07
2019-02-17T02:59:58.943Z,20.60
2019-02-17T03:02:26.225Z,21.83
2019-02-17T03:04:53.485Z,22.40
2019-02-17T03:07:20.901Z,26.80
2019-02-17T03:09:48.182Z,22.07
2019-02-17T03:12:15.445Z,23.07
2019-02-17T03:14:42.865Z,24.10
2019-02-17T03:17:10.404Z,21.93
2019-02-17T03:19:37.671Z,21.40
2019-02-17T03:22:05.017Z,22.20
2019-02-17T03:24:32.297Z,19.70
2019-02-17T03:26:59.565Z,20.57
2019-02-17T03:29:26.846Z,19.70
2019-02-17T03:31:54.100Z,22.57
2019-02-17T03:34:21.373Z,21.20
2019-02-17T03:36:48.659Z,22.90
2019-02-17T03:39:15.919Z,25.13
2019-02-17T03:41:43.447Z,22.80
2019-02-17T03:44:10.697Z,22.00
2019-02-17T03:46:37.946Z,31.40
2019-02-17T03:49:05.575Z,24.70
2019-02-17T03:51:32.827Z,24.90
2019-02-17T03:54:00.330Z,29.07
2019-02-17T03:56:27.614Z,22.63
2019-02-17T03:58:55.118Z,21.80
2019-02-17T04:01:22.398Z,21.37
2019-02-17T04:03:49.646Z,20.10
2019-02-17T04:06:16.928Z,22.87
2019-02-17T04:08:44.173Z,20.10
2019-02-17T04:11:11.459Z,25.27
2019-02-17T04:13:38.843Z,24.27
2019-02-17T04:16:06.373Z,23.77
2019-02-17T04:18:33.699Z,33.03
2019-02-17T04:21:00.951Z,25.13
2019-02-17T04:23:31.596Z,25.40
2019-02-17T04:25:57.497Z,24.27
2019-02-17T04:28:25.061Z,25.73
2019-02-17T04:30:52.327Z,26.43
2019-02-17T04:33:19.594Z,21.40
2019-02-17T04:35:46.886Z,21.13
2019-02-17T04:38:14.243Z,22.17
2019-02-17T04:40:41.521Z,27.70
2019-02-17T04:43:08.900Z,24.13
2019-02-17T04:45:36.211Z,31.17
2019-02-17T04:48:03.497Z,34.67
2019-02-17T04:50:30.750Z,26.47
2019-02-17T04:52:58.027Z,31.83
2019-02-17T04:55:25.315Z,29.53
2019-02-17T04:57:52.592Z,33.20
2019-02-17T05:00:19.843Z,30.63
2019-02-17T05:02:47.139Z,28.60
2019-02-17T05:05:14.390Z,25.50
2019-02-17T05:07:41.646Z,28.20
2019-02-17T05:10:08.982Z,26.37
2019-02-17T05:12:36.266Z,29.33
2019-02-17T05:15:03.895Z,32.03
2019-02-17T05:17:31.169Z,29.90
2019-02-17T05:19:58.450Z,28.13
2019-02-17T05:22:25.702Z,31.80
2019-02-17T05:24:52.989Z,30.00
2019-02-17T05:27:20.233Z,28.67
2019-02-17T05:29:47.527Z,31.23
2019-02-17T05:32:14.867Z,32.20
2019-02-17T05:34:42.119Z,30.37
2019-02-17T05:37:09.408Z,27.23
2019-02-17T05:39:36.718Z,30.40
2019-02-17T05:42:04.081Z,29.63
2019-02-17T05:44:31.334Z,32.40
2019-02-17T05:46:58.593Z,32.67
2019-02-17T05:49:25.951Z,33.43
2019-02-17T05:51:53.206Z,32.50
2019-02-17T05:54:20.485Z,30.03
2019-02-17T05:56:47.738Z,31.30
2019-02-17T05:59:15.018Z,33.40
2019-02-17T06:01:42.266Z,35.13
2019-02-17T06:04:09.547Z,30.33
2019-02-17T06:06:36.828Z,33.90
2019-02-17T06:09:04.874Z,32.27
2019-02-17T06:11:32.134Z,32.50
2019-02-17T06:13:59.409Z,27.13
2019-02-17T06:16:26.694Z,33.10
2019-02-17T06:18:53.942Z,29.47
2019-02-17T06:21:21.227Z,33.77
2019-02-17T06:23:48.506Z,33.77
2019-02-17T06:26:15.767Z,28.70
2019-02-17T06:28:43.104Z,30.90
2019-02-17T06:31:14.353Z,32.50
2019-02-17T06:33:39.468Z,33.63
2019-02-17T06:36:06.718Z,34.57
2019-02-17T06:38:34.278Z,33.40
2019-02-17T06:41:01.522Z,37.23
2019-02-17T06:43:29.037Z,37.07
2019-02-17T06:45:56.315Z,35.23
2019-02-17T06:48:23.595Z,33.23
2019-02-17T06:50:50.870Z,30.27
2019-02-17T06:53:18.414Z,38.93
2019-02-17T06:55:50.279Z,31.37
2019-02-17T06:58:17.525Z,30.20
2019-02-17T07:00:45.680Z,30.33
2019-02-17T07:03:14.435Z,31.50
2019-02-17T07:05:43.431Z,30.47
2019-02-17T07:08:11.255Z,30.80
2019-02-17T07:10:38.535Z,28.40
2019-02-17T07:13:05.802Z,32.40
2019-02-17T07:15:33.086Z,28.10
2019-02-17T07:18:00.375Z,29.40
2019-02-17T07:20:27.705Z,32.20
2019-02-17T07:22:54.986Z,28.60
2019-02-17T07:25:29.664Z,29.97
2019-02-17T07:27:51.266Z,30.00
2019-02-17T07:30:18.794Z,27.67
2019-02-17T07:32:46.149Z,27.77
2019-02-17T07:35:13.422Z,25.40
2019-02-17T07:37:40.674Z,30.63
2019-02-17T07:40:08.027Z,28.57
2019-02-17T07:42:35.282Z,27.77
2019-02-17T07:45:02.563Z,30.27
2019-02-17T07:47:29.816Z,32.47
2019-02-17T07:49:57.114Z,28.60
2019-02-17T07:52:24.368Z,24.93
2019-02-17T07:54:51.622Z,29.70
2019-02-17T07:57:18.894Z,25.47
2019-02-17T07:59:46.143Z,26.10
2019-02-17T08:02:13.675Z,30.17
2019-02-17T08:04:40.945Z,31.17
2019-02-17T08:07:08.197Z,28.00
2019-02-17T08:09:35.729Z,33.17
2019-02-17T08:12:03.244Z,27.07
2019-02-17T08:14:30.510Z,32.40
2019-02-17T08:16:57.798Z,27.73
2019-02-17T08:19:25.074Z,33.73
2019-02-17T08:21:52.326Z,28.83
2019-02-17T08:24:19.863Z,29.43
2019-02-17T08:26:47.140Z,35.40
2019-02-17T08:29:14.421Z,30.90
2019-02-17T08:31:41.667Z,27.50
2019-02-17T08:34:08.954Z,30.50
2019-02-17T08:36:36.229Z,32.83
2019-02-17T08:39:04.554Z,25.33
2019-02-17T08:41:31.809Z,24.60
2019-02-17T08:44:00.889Z,27.97
2019-02-17T08:46:28.314Z,26.30
2019-02-17T08:48:55.592Z,27.33
2019-02-17T08:51:22.837Z,33.67
2019-02-17T08:53:50.370Z,33.33
2019-02-17T08:56:18.790Z,40.30
2019-02-17T08:58:46.437Z,32.10
2019-02-17T09:01:13.689Z,42.40
2019-02-17T09:03:40.969Z,36.00
2019-02-17T09:06:08.494Z,28.30
2019-02-17T09:08:35.847Z,31.10
2019-02-17T09:11:03.097Z,26.30
2019-02-17T09:13:30.387Z,25.70
2019-02-17T09:15:57.639Z,31.70
2019-02-17T09:18:24.923Z,28.60
2019-02-17T09:20:52.198Z,31.90
2019-02-17T09:23:19.726Z,27.10
2019-02-17T09:25:47.256Z,29.53
2019-02-17T09:28:14.514Z,29.90
2019-02-17T09:30:41.789Z,27.80
2019-02-17T09:33:09.317Z,29.27
2019-02-17T09:35:37.168Z,28.13
2019-02-17T09:38:04.879Z,31.10
2019-02-17T09:40:32.467Z,31.63
2019-02-17T09:43:00.172Z,30.27
2019-02-17T09:45:27.846Z,25.27
2019-02-17T09:47:55.409Z,27.93
2019-02-17T09:50:22.830Z,26.27
2019-02-17T09:52:50.785Z,22.93
2019-02-17T09:55:19.589Z,24.10
2019-02-17T09:57:47.356Z,24.33
2019-02-17T10:00:16.455Z,24.93
2019-02-17T10:02:44.019Z,22.60
2019-02-17T10:05:11.926Z,27.00
2019-02-17T10:07:39.739Z,26.00
2019-02-17T10:10:18.259Z,26.30
2019-02-17T10:12:45.703Z,28.10
2019-02-17T10:15:13.504Z,26.03
2019-02-17T10:17:41.037Z,26.60
2019-02-17T10:20:09.762Z,28.00
2019-02-17T10:22:37.457Z,26.50
2019-02-17T10:25:06.300Z,28.70
2019-02-17T10:27:33.765Z,30.47
2019-02-17T10:30:01.331Z,27.57
2019-02-17T10:32:36.467Z,26.00
2019-02-17T10:34:57.860Z,23.93
2019-02-17T10:37:25.423Z,27.10
2019-02-17T10:39:53.178Z,29.13
2019-02-17T10:42:20.479Z,28.20
2019-02-17T10:44:47.984Z,30.47
2019-02-17T10:47:15.295Z,30.70
2019-02-17T10:49:42.576Z,28.90
2019-02-17T10:52:09.825Z,27.07
2019-02-17T10:54:37.097Z,24.00
2019-02-17T10:57:04.351Z,24.73
2019-02-17T10:59:31.625Z,22.57
2019-02-17T11:01:58.882Z,22.00
2019-02-17T11:04:26.162Z,21.60
2019-02-17T11:06:53.657Z,29.53
2019-02-17T11:09:20.955Z,21.03
2019-02-17T11:11:48.207Z,21.10
2019-02-17T11:14:15.910Z,21.30
2019-02-17T11:16:43.788Z,19.97
2019-02-17T11:19:11.133Z,21.97
2019-02-17T11:21:38.421Z,19.07
2019-02-17T11:24:05.669Z,20.03
2019-02-17T11:26:33.026Z,25.30
2019-02-17T11:29:00.301Z,17.03
2019-02-17T11:31:27.585Z,18.53
2019-02-17T11:33:54.909Z,16.60
2019-02-17T11:36:22.181Z,17.40
2019-02-17T11:38:49.456Z,18.37
2019-02-17T11:41:16.746Z,18.63
2019-02-17T11:43:44.257Z,20.13
2019-02-17T11:46:11.797Z,18.50
2019-02-17T11:48:39.055Z,16.13
2019-02-17T11:51:06.336Z,24.20
2019-02-17T11:53:33.618Z,19.80
2019-02-17T11:56:00.866Z,16.43
2019-02-17T11:58:28.147Z,19.63
2019-02-17T12:00:55.394Z,21.43
2019-02-17T12:03:22.682Z,16.73
2019-02-17T12:05:50.174Z,16.00
2019-02-17T12:08:17.715Z,18.37
2019-02-17T12:10:45.206Z,15.70
2019-02-17T12:13:12.482Z,14.40
2019-02-17T12:15:39.977Z,15.33
2019-02-17T12:18:07.265Z,14.60
2019-02-17T12:20:48.075Z,15.27
2019-02-17T12:23:17.221Z,16.67
2019-02-17T12:26:01.012Z,15.50
2019-02-17T12:28:44.737Z,17.17
2019-02-17T12:31:13.663Z,14.43
2019-02-17T12:33:40.913Z,17.20
2019-02-17T12:36:08.242Z,14.83
2019-02-17T12:38:35.517Z,16.90
2019-02-17T12:41:02.808Z,18.43
2019-02-17T12:43:30.084Z,16.50
2019-02-17T12:45:57.337Z,15.27
2019-02-17T12:48:24.622Z,19.43
2019-02-17T12:50:51.870Z,16.10
2019-02-17T12:53:19.164Z,16.10
2019-02-17T12:55:46.416Z,14.70
2019-02-17T12:58:13.922Z,13.80
2019-02-17T13:00:41.466Z,12.13
2019-02-17T13:03:08.996Z,14.47
2019-02-17T13:05:36.278Z,15.40
2019-02-17T13:08:03.539Z,14.50
2019-02-17T13:10:30.815Z,14.80
2019-02-17T13:12:58.066Z,13.93
2019-02-17T13:15:25.602Z,16.27
2019-02-17T13:17:53.125Z,15.93
2019-02-17T13:20:20.454Z,15.67
2019-02-17T13:22:47.969Z,13.70
2019-02-17T13:25:15.887Z,16.37
2019-02-17T13:27:43.415Z,15.10
2019-02-17T13:30:12.040Z,14.53
2019-02-17T13:32:39.598Z,16.27
2019-02-17T13:35:06.930Z,14.80
2019-02-17T13:37:34.486Z,12.50
2019-02-17T13:40:01.786Z,17.00
2019-02-17T13:42:29.067Z,14.50
2019-02-17T13:44:56.321Z,15.00
2019-02-17T13:47:23.870Z,13.80
2019-02-17T13:49:51.130Z,12.07
2019-02-17T13:52:18.383Z,12.10
2019-02-17T13:54:46.048Z,13.70
2019-02-17T13:57:13.624Z,17.40
2019-02-17T13:59:40.878Z,13.27
2019-02-17T14:02:08.155Z,13.43
2019-02-17T14:04:35.433Z,13.80
2019-02-17T14:07:02.691Z,15.20
2019-02-17T14:09:29.969Z,17.47
2019-02-17T14:11:57.254Z,16.30
2019-02-17T14:14:24.799Z,15.47
2019-02-17T14:16:52.057Z,14.13
2019-02-17T14:19:19.311Z,14.87
2019-02-17T14:21:46.594Z,17.03
2019-02-17T14:24:13.841Z,14.17
2019-02-17T14:26:41.122Z,13.17
2019-02-17T14:29:08.374Z,12.83
2019-02-17T14:31:35.655Z,17.30
2019-02-17T14:34:02.934Z,15.27
2019-02-17T14:36:30.190Z,15.83
2019-02-17T14:38:57.457Z,16.33
2019-02-17T14:41:24.763Z,15.90
2019-02-17T14:43:52.354Z,15.63
2019-02-17T14:46:19.610Z,16.67
2019-02-17T14:48:46.866Z,22.40
2019-02-17T14:51:14.410Z,15.93
2019-02-17T14:53:41.704Z,16.47
2019-02-17T14:56:09.212Z,14.70
2019-02-17T14:58:36.701Z,15.43
2019-02-17T15:01:05.740Z,16.03
2019-02-17T15:03:33.286Z,16.27
2019-02-17T15:06:00.990Z,19.57
2019-02-17T15:08:28.460Z,18.20
2019-02-17T15:10:56.646Z,15.73
2019-02-17T15:13:24.608Z,20.97
2019-02-17T15:15:52.230Z,17.73
2019-02-17T15:18:19.788Z,17.57
2019-02-17T15:20:47.302Z,17.50
2019-02-17T15:23:14.591Z,18.20
2019-02-17T15:25:41.932Z,16.50
2019-02-17T15:28:09.250Z,16.40
2019-02-17T15:30:37.099Z,17.77
2019-02-17T15:33:04.483Z,17.80
2019-02-17T15:35:31.787Z,21.03
2019-02-17T15:37:59.033Z,20.83
2019-02-17T15:40:26.548Z,19.20
2019-02-17T15:42:53.820Z,25.37
2019-02-17T15:45:21.354Z,20.47
2019-02-17T15:47:48.611Z,20.90
2019-02-17T15:50:15.962Z,19.33
2019-02-17T15:52:43.510Z,21.93
2019-02-17T15:55:14.250Z,18.93
2019-02-17T15:57:41.595Z,25.13
2019-02-17T16:00:10.601Z,19.00
2019-02-17T16:02:38.123Z,20.50
2019-02-17T16:05:06.061Z,21.63
2019-02-17T16:07:33.574Z,19.87
2019-02-17T16:10:00.915Z,20.93
2019-02-17T16:12:28.266Z,19.30
2019-02-17T16:14:55.543Z,20.10
2019-02-17T16:17:22.823Z,20.03
2019-02-17T16:19:50.111Z,21.67
2019-02-17T16:22:17.440Z,24.23
2019-02-17T16:24:44.949Z,25.53
2019-02-17T16:27:12.233Z,20.70
2019-02-17T16:29:39.483Z,19.60
2019-02-17T16:32:07.010Z,19.57
2019-02-17T16:34:38.480Z,21.87
2019-02-17T16:37:03.572Z,20.73
2019-02-17T16:39:30.846Z,26.60
2019-02-17T16:41:58.102Z,29.70
2019-02-17T16:44:25.391Z,18.23
2019-02-17T16:46:52.705Z,21.57
2019-02-17T16:49:20.142Z,18.07
2019-02-17T16:51:48.006Z,23.90
2019-02-17T16:54:15.353Z,21.17
2019-02-17T16:56:42.886Z,17.30
2019-02-17T16:59:10.390Z,20.80
2019-02-17T17:01:37.677Z,23.73
2019-02-17T17:04:05.005Z,18.73
2019-02-17T17:06:32.525Z,18.57
2019-02-17T17:09:00.080Z,19.73
2019-02-17T17:11:27.625Z,18.30
2019-02-17T17:13:54.882Z,19.50
2019-02-17T17:16:22.411Z,23.50
2019-02-17T17:18:49.959Z,20.27
2019-02-17T17:21:17.202Z,20.87
2019-02-17T17:23:44.487Z,18.57
2019-02-17T17:26:11.739Z,20.20
2019-02-17T17:28:39.017Z,18.37
2019-02-17T17:31:06.270Z,18.20
2019-02-17T17:33:33.558Z,23.60
2019-02-17T17:36:00.820Z,20.97
2019-02-17T17:38:28.110Z,24.90
2019-02-17T17:40:55.354Z,23.67
2019-02-17T17:43:22.854Z,25.80
2019-02-17T17:45:50.156Z,25.13
2019-02-17T17:48:17.488Z,21.03
2019-02-17T17:50:44.821Z,19.97
2019-02-17T17:53:12.353Z,24.73
2019-02-17T17:55:39.604Z,21.00
2019-02-17T17:58:07.146Z,21.77
2019-02-17T18:00:36.038Z,24.30
2019-02-17T18:03:03.297Z,23.33
2019-02-17T18:05:30.578Z,21.87
2019-02-17T18:07:58.133Z,20.30
2019-02-17T18:10:25.386Z,23.23
2019-02-17T18:12:52.643Z,24.70
2019-02-17T18:15:20.296Z,19.57
2019-02-17T18:17:54.695Z,25.03
2019-02-17T18:20:16.561Z,23.00
2019-02-17T18:22:43.813Z,22.67
2019-02-17T18:25:12.668Z,21.10
2019-02-17T18:27:40.294Z,21.57
2019-02-17T18:30:20.063Z,21.87
2019-02-17T18:32:48.005Z,23.50
2019-02-17T18:35:19.612Z,21.60
2019-02-17T18:37:44.448Z,26.30
2019-02-17T18:40:12.561Z,24.00
2019-02-17T18:42:39.846Z,21.73
2019-02-17T18:45:11.064Z,18.50
2019-02-17T18:47:38.653Z,20.80
2019-02-17T18:50:07.480Z,22.00
2019-02-17T18:52:34.825Z,18.53
2019-02-17T18:55:02.407Z,18.67
2019-02-17T18:57:29.689Z,17.17
2019-02-17T18:59:56.982Z,21.00
2019-02-17T19:02:24.231Z,17.33
2019-02-17T19:04:51.502Z,20.30
2019-02-17T19:07:18.851Z,20.37
2019-02-17T19:09:46.245Z,19.20
2019-02-17T19:12:13.639Z,15.93
2019-02-17T19:14:41.002Z,17.93
2019-02-17T19:17:08.350Z,19.70
2019-02-17T19:19:35.601Z,18.90
2019-02-17T19:22:02.898Z,18.13
2019-02-17T19:24:30.146Z,17.30
2019-02-17T19:26:57.407Z,21.80
2019-02-17T19:29:24.685Z,17.83
2019-02-17T19:31:52.146Z,18.03
2019-02-17T19:34:19.501Z,16.70
2019-02-17T19:36:46.755Z,17.57
2019-02-17T19:39:14.086Z,20.47
2019-02-17T19:41:41.373Z,15.40
2019-02-17T19:44:08.883Z,16.70
2019-02-17T19:46:36.393Z,17.20
2019-02-17T19:49:03.674Z,16.00
2019-02-17T19:51:31.199Z,14.80
2019-02-17T19:53:58.471Z,16.10
2019-02-17T19:56:25.752Z,15.93
2019-02-17T19:58:53.098Z,12.93
2019-02-17T20:01:20.352Z,14.43
2019-02-17T20:03:49.269Z,16.53
2019-02-17T20:06:18.169Z,14.90
2019-02-17T20:08:45.701Z,17.23
2019-02-17T20:11:12.960Z,16.20
2019-02-17T20:13:40.238Z,16.90
2019-02-17T20:16:07.490Z,15.97
2019-02-17T20:18:34.996Z,15.43
2019-02-17T20:21:02.266Z,18.20
2019-02-17T20:23:29.644Z,14.60
2019-02-17T20:25:57.970Z,13.80
2019-02-17T20:28:40.578Z,14.23
2019-02-17T20:30:54.314Z,16.67
2019-02-17T20:33:21.610Z,14.50
2019-02-17T20:35:48.867Z,15.33
2019-02-17T20:38:16.154Z,16.97
2019-02-17T20:40:43.443Z,13.80
2019-02-17T20:43:10.718Z,14.40
2019-02-17T20:45:37.971Z,17.43
2019-02-17T20:48:05.256Z,18.10
2019-02-17T20:50:32.601Z,15.17
2019-02-17T20:52:59.857Z,12.13
2019-02-17T20:55:27.138Z,13.87
2019-02-17T20:57:54.423Z,15.80
2019-02-17T21:00:26.631Z,13.03
2019-02-17T21:02:53.895Z,14.23
2019-02-17T21:05:21.498Z,17.17
2019-02-17T21:07:48.779Z,13.40
2019-02-17T21:10:16.127Z,16.00
2019-02-17T21:12:43.457Z,16.10
2019-02-17T21:15:11.779Z,15.00
2019-02-17T21:17:39.909Z,14.80
2019-02-17T21:20:07.963Z,16.27
2019-02-17T21:22:35.246Z,15.67
2019-02-17T21:25:02.785Z,15.27
2019-02-17T21:27:30.032Z,15.17
2019-02-17T21:29:57.315Z,14.53
2019-02-17T21:32:24.553Z,15.53
2019-02-17T21:34:51.835Z,17.33
2019-02-17T21:37:19.123Z,18.23
2019-02-17T21:39:46.649Z,17.40
2019-02-17T21:42:13.947Z,18.40
2019-02-17T21:44:41.222Z,17.33
2019-02-17T21:47:08.547Z,16.77
2019-02-17T21:49:36.086Z,14.60
2019-02-17T21:52:03.342Z,19.43
2019-02-17T21:54:30.623Z,16.43
2019-02-17T21:56:57.911Z,14.87
2019-02-17T21:59:25.420Z,16.27
2019-02-17T22:01:52.693Z,14.63
2019-02-17T22:04:19.945Z,16.17
2019-02-17T22:06:47.486Z,15.20
2019-02-17T22:09:14.740Z,14.80
2019-02-17T22:11:42.038Z,14.43
2019-02-17T22:14:09.283Z,13.47
2019-02-17T22:16:36.533Z,12.80
2019-02-17T22:19:03.816Z,13.40
2019-02-17T22:21:31.053Z,17.67
2019-02-17T22:23:58.330Z,13.40
2019-02-17T22:26:25.575Z,12.90
2019-02-17T22:28:53.078Z,12.73
2019-02-17T22:31:20.358Z,12.50
2019-02-17T22:33:47.630Z,11.13
2019-02-17T22:36:14.877Z,12.20
2019-02-17T22:38:42.194Z,11.10
2019-02-17T22:41:09.502Z,10.97
2019-02-17T22:43:36.834Z,11.00
2019-02-17T22:46:04.156Z,9.73
2019-02-17T22:48:31.746Z,11.57
2019-02-17T22:50:59.281Z,12.50
2019-02-17T22:53:26.571Z,10.33
2019-02-17T22:55:53.841Z,9.60
2019-02-17T22:58:21.146Z,9.40
2019-02-17T23:00:53.002Z,8.60
2019-02-17T23:03:20.358Z,10.20
2019-02-17T23:05:47.594Z,7.33
2019-02-17T23:08:15.029Z,8.53
2019-02-17T23:10:42.342Z,8.90
2019-02-17T23:13:09.612Z,9.40
2019-02-17T23:15:36.855Z,9.00
2019-02-17T23:18:04.102Z,11.53
2019-02-17T23:20:31.378Z,12.73
2019-02-17T23:22:58.620Z,7.53
2019-02-17T23:25:26.147Z,11.00
2019-02-17T23:27:53.466Z,9.40
2019-02-17T23:30:20.986Z,7.07
2019-02-17T23:32:48.524Z,5.17
2019-02-17T23:35:15.781Z,7.33
2019-02-17T23:37:43.054Z,9.97
2019-02-17T23:40:10.898Z,6.67
2019-02-17T23:42:38.234Z,7.83
2019-02-17T23:45:07.041Z,8.27
2019-02-17T23:47:34.325Z,6.60
2019-02-17T23:50:01.840Z,6.60
2019-02-17T23:52:29.082Z,6.23
2019-02-17T23:54:56.350Z,7.63
2019-02-17T23:57:23.594Z,6.30
2019-02-17T23:59:50.872Z,6.97
